Terminal Aerodrome Forecast
Issued by NWS Shreveport, LA

Current Version | Previous Version | Text Only | Print | Product List | Glossary On
Versions: 1 2 3 4 5 6 7 8 9 10 11 12 13 14 15 16 17 18 19
743
FTUS44 KSHV 300520
TAFTXK
TAF
KTXK 300520Z 3006/3106 22005KT P6SM BKN100
     FM300800 25010KT P6SM SKC
     FM301500 25014G22KT P6SM SCT040
     FM310000 VRB02KT P6SM SKC=

USA.gov is the U.S. government's official web portal to all federal, state and local government web resources and services.